createdAt,value
2022-11-24T00:02:46.696Z,4.18
2022-11-24T00:07:50.222Z,4.17
2022-11-24T00:12:53.217Z,4.15
2022-11-24T00:17:56.427Z,4.15
2022-11-24T00:22:59.413Z,4.14
2022-11-24T00:28:02.307Z,4.15
2022-11-24T00:33:06.413Z,4.15
2022-11-24T00:38:09.249Z,4.15
2022-11-24T00:43:12.553Z,4.14
2022-11-24T00:48:15.570Z,4.11
2022-11-24T00:53:18.473Z,4.09
2022-11-24T00:58:23.233Z,4.07
2022-11-24T01:03:26.126Z,4.07
2022-11-24T01:08:28.943Z,4.08
2022-11-24T01:13:31.787Z,4.09
2022-11-24T01:18:34.665Z,4.12
2022-11-24T01:23:38.056Z,4.14
2022-11-24T01:28:46.637Z,4.15
2022-11-24T01:33:50.547Z,4.13
2022-11-24T01:38:53.432Z,4.12
2022-11-24T01:43:57.422Z,4.13
2022-11-24T01:49:09.211Z,4.11
2022-11-24T01:54:35.443Z,4.10
2022-11-24T01:59:38.743Z,4.07
2022-11-24T02:04:42.752Z,4.04
2022-11-24T02:09:52.913Z,4.01
2022-11-24T02:14:56.888Z,3.99
2022-11-24T02:20:04.433Z,3.98
2022-11-24T02:25:58.580Z,3.96
2022-11-24T02:31:02.454Z,3.97
2022-11-24T02:36:05.710Z,3.96
2022-11-24T02:41:15.130Z,3.93
2022-11-24T02:46:18.038Z,3.93
2022-11-24T02:51:21.123Z,3.93
2022-11-24T02:56:25.607Z,3.90
2022-11-24T03:01:28.521Z,3.86
2022-11-24T03:06:31.500Z,3.81
2022-11-24T03:11:34.345Z,3.76
2022-11-24T03:16:37.294Z,3.68
2022-11-24T03:21:40.243Z,3.61
2022-11-24T03:26:43.187Z,3.58
2022-11-24T03:31:46.245Z,3.54
2022-11-24T03:36:49.067Z,3.53
2022-11-24T03:41:51.932Z,3.49
2022-11-24T03:46:54.952Z,3.45
2022-11-24T03:51:57.870Z,3.42
2022-11-24T03:57:00.872Z,3.37
2022-11-24T04:02:03.797Z,3.31
2022-11-24T04:07:06.732Z,3.25
2022-11-24T04:12:29.162Z,3.21
2022-11-24T04:17:32.097Z,3.18
2022-11-24T04:22:35.869Z,3.12
2022-11-24T04:27:39.359Z,3.09
2022-11-24T04:32:42.383Z,3.03
2022-11-24T04:37:45.180Z,3.02
2022-11-24T04:42:55.666Z,2.97
2022-11-24T04:47:58.604Z,2.91
2022-11-24T04:53:01.528Z,2.86
2022-11-24T04:58:04.477Z,2.78
2022-11-24T05:03:07.367Z,2.70
2022-11-24T05:08:10.234Z,2.64
2022-11-24T05:13:13.965Z,2.63
2022-11-24T05:18:16.874Z,2.62
2022-11-24T05:23:19.822Z,2.62
2022-11-24T05:28:22.727Z,2.65
2022-11-24T05:33:28.630Z,2.70
2022-11-24T05:38:33.092Z,2.74
2022-11-24T05:43:35.989Z,2.80
2022-11-24T05:48:39.152Z,2.86
2022-11-24T05:53:42.046Z,2.89
2022-11-24T05:58:45.087Z,2.93
2022-11-24T06:03:48.267Z,2.94
2022-11-24T06:08:51.165Z,2.94
2022-11-24T06:13:54.616Z,2.93
2022-11-24T06:18:57.991Z,2.98
2022-11-24T06:24:00.753Z,2.99
2022-11-24T06:29:03.978Z,3.04
2022-11-24T06:34:11.060Z,3.07
2022-11-24T06:39:13.987Z,3.14
2022-11-24T06:44:17.011Z,3.17
2022-11-24T06:49:20.150Z,3.23
2022-11-24T06:54:23.352Z,3.28
2022-11-24T06:59:27.745Z,3.37
2022-11-24T07:04:30.820Z,3.42
2022-11-24T07:09:33.698Z,3.45
2022-11-24T07:14:36.797Z,3.43
2022-11-24T07:19:40.055Z,3.37
2022-11-24T07:24:42.868Z,3.35
2022-11-24T07:29:45.775Z,3.40
2022-11-24T07:34:48.678Z,3.53
2022-11-24T07:39:51.544Z,3.63
2022-11-24T07:44:54.368Z,3.72
2022-11-24T07:49:57.499Z,3.74
2022-11-24T07:55:00.439Z,3.77
2022-11-24T08:00:05.927Z,3.77
2022-11-24T08:05:09.314Z,3.75
2022-11-24T08:10:12.309Z,3.71
2022-11-24T08:15:15.866Z,3.71
2022-11-24T08:20:19.007Z,3.72
2022-11-24T08:25:24.456Z,3.78
2022-11-24T08:30:27.911Z,3.89
2022-11-24T08:35:30.795Z,4.00
2022-11-24T08:40:33.930Z,4.07
2022-11-24T08:45:41.359Z,4.12
2022-11-24T08:50:44.881Z,4.11
2022-11-24T08:55:47.821Z,4.13
2022-11-24T09:00:50.638Z,4.15
2022-11-24T09:05:53.581Z,4.20
2022-11-24T09:11:05.761Z,4.27
2022-11-24T09:16:17.937Z,4.34
2022-11-24T09:21:21.905Z,4.42
2022-11-24T09:26:31.113Z,4.52
2022-11-24T09:31:37.193Z,4.63
2022-11-24T09:36:40.045Z,4.73
2022-11-24T09:42:06.034Z,4.88
2022-11-24T09:47:30.622Z,4.99
2022-11-24T09:52:43.245Z,5.11
2022-11-24T09:57:56.077Z,5.18
2022-11-24T10:02:59.003Z,5.18
2022-11-24T10:08:36.105Z,5.12
2022-11-24T10:14:03.068Z,5.04
2022-11-24T10:19:36.315Z,5.01
2022-11-24T10:25:07.692Z,5.01
2022-11-24T10:30:23.914Z,5.01
2022-11-24T10:35:37.649Z,5.05
2022-11-24T10:40:56.859Z,5.09
2022-11-24T10:46:09.120Z,5.16
2022-11-24T10:51:30.429Z,5.18
2022-11-24T10:56:44.911Z,5.18
2022-11-24T11:01:47.996Z,5.23
2022-11-24T11:06:51.428Z,5.24
2022-11-24T11:11:54.394Z,5.26
2022-11-24T11:16:58.136Z,5.31
2022-11-24T11:22:48.324Z,5.37
2022-11-24T11:27:51.592Z,5.43
2022-11-24T11:38:21.385Z,5.58
2022-11-24T11:43:34.467Z,5.64
2022-11-24T11:48:43.581Z,5.73
2022-11-24T11:54:16.477Z,5.80
2022-11-24T11:59:50.104Z,5.86
2022-11-24T12:05:34.182Z,5.93
2022-11-24T12:10:56.191Z,5.97
2022-11-24T12:16:14.677Z,6.08
2022-11-24T12:21:26.637Z,6.05
2022-11-24T12:26:49.331Z,5.97
2022-11-24T12:32:21.231Z,5.89
2022-11-24T12:37:47.326Z,5.83
2022-11-24T12:43:13.563Z,5.78
2022-11-24T12:48:43.071Z,5.77
2022-11-24T12:53:52.951Z,5.83
2022-11-24T12:59:13.480Z,5.92
2022-11-24T13:04:38.138Z,5.98
2022-11-24T13:10:53.524Z,5.90
2022-11-24T13:16:34.434Z,5.80
2022-11-24T13:21:32.837Z,5.69
2022-11-24T13:26:41.557Z,5.66
2022-11-24T13:31:44.769Z,5.63
2022-11-24T13:36:54.127Z,5.64
2022-11-24T13:41:57.239Z,5.66
2022-11-24T13:47:25.056Z,5.64
2022-11-24T13:52:39.847Z,5.64
2022-11-24T13:57:58.427Z,5.64
2022-11-24T14:03:22.037Z,5.64
2022-11-24T14:08:30.460Z,5.63
2022-11-24T14:13:33.626Z,5.62
2022-11-24T14:18:40.059Z,5.59
2022-11-24T14:24:33.472Z,5.55
2022-11-24T14:30:03.351Z,5.48
2022-11-24T14:35:29.210Z,5.43
2022-11-24T14:40:55.570Z,5.39
2022-11-24T14:46:09.380Z,5.35
2022-11-24T14:51:32.306Z,5.32
2022-11-24T14:56:38.198Z,5.26
2022-11-24T15:01:41.083Z,5.23
2022-11-24T15:07:26.403Z,5.22
2022-11-24T15:12:41.005Z,5.17
2022-11-24T15:17:59.276Z,5.15
2022-11-24T15:23:23.993Z,5.13
2022-11-24T15:28:27.427Z,5.13
2022-11-24T15:33:30.960Z,5.07
2022-11-24T15:38:33.972Z,4.99
2022-11-24T15:43:41.136Z,4.89
2022-11-24T15:48:43.984Z,4.78
2022-11-24T15:53:58.722Z,4.71
2022-11-24T15:59:04.711Z,4.65
2022-11-24T16:04:07.813Z,4.61
2022-11-24T16:09:16.281Z,4.56
2022-11-24T16:14:19.356Z,4.54
2022-11-24T16:19:22.391Z,4.53
2022-11-24T16:24:25.912Z,4.46
2022-11-24T16:29:28.770Z,4.38
2022-11-24T16:34:31.733Z,4.33
2022-11-24T16:39:37.282Z,4.27
2022-11-24T16:44:40.352Z,4.15
2022-11-24T16:49:43.420Z,4.05
2022-11-24T16:54:47.732Z,4.01
2022-11-24T16:59:50.632Z,4.00
2022-11-24T17:04:53.571Z,3.96
2022-11-24T17:09:56.806Z,3.89
2022-11-24T17:15:30.452Z,3.87
2022-11-24T17:20:22.816Z,3.85
2022-11-24T17:25:25.754Z,3.79
2022-11-24T17:30:28.600Z,3.72
2022-11-24T17:35:34.370Z,3.70
2022-11-24T17:40:37.205Z,3.70
2022-11-24T17:45:40.161Z,3.67
2022-11-24T17:50:43.460Z,3.67
2022-11-24T17:55:48.208Z,3.63
2022-11-24T18:00:52.171Z,3.63
2022-11-24T18:05:55.972Z,3.68
2022-11-24T18:11:27.332Z,3.67
2022-11-24T18:16:35.011Z,3.61
2022-11-24T18:21:44.809Z,3.56
2022-11-24T18:26:48.222Z,3.49
2022-11-24T18:31:51.203Z,3.42
2022-11-24T18:36:54.316Z,3.31
2022-11-24T18:41:56.961Z,3.23
2022-11-24T18:46:59.811Z,3.17
2022-11-24T18:52:02.696Z,3.18
2022-11-24T18:57:05.808Z,3.16
2022-11-24T19:02:10.860Z,3.14
2022-11-24T19:07:17.072Z,3.13
2022-11-24T19:12:20.023Z,3.16
2022-11-24T19:17:22.974Z,3.18
2022-11-24T19:22:25.811Z,3.18
2022-11-24T19:27:29.738Z,3.23
2022-11-24T19:32:32.773Z,3.20
2022-11-24T19:37:35.640Z,3.19
2022-11-24T19:42:38.598Z,3.11
2022-11-24T19:47:41.828Z,3.01
2022-11-24T19:52:44.767Z,2.86
2022-11-24T19:57:47.703Z,2.77
2022-11-24T20:02:51.113Z,2.81
2022-11-24T20:07:54.800Z,2.79
2022-11-24T20:12:57.768Z,2.81
2022-11-24T20:18:00.655Z,2.86
2022-11-24T20:23:03.832Z,2.89
2022-11-24T20:28:07.148Z,2.88
2022-11-24T20:33:10.084Z,2.98
2022-11-24T20:38:12.974Z,3.03
2022-11-24T20:43:15.945Z,3.14
2022-11-24T20:48:18.825Z,3.22
2022-11-24T20:53:21.743Z,3.27
2022-11-24T20:58:24.672Z,3.25
2022-11-24T21:03:27.587Z,3.27
2022-11-24T21:08:36.038Z,3.31
2022-11-24T21:13:43.750Z,3.35
2022-11-24T21:18:52.413Z,3.40
2022-11-24T21:23:55.256Z,3.40
2022-11-24T21:28:58.362Z,3.36
2022-11-24T21:34:01.022Z,3.34
2022-11-24T21:39:04.529Z,3.30
2022-11-24T21:44:07.761Z,3.25
2022-11-24T21:49:10.746Z,3.20
2022-11-24T21:54:13.663Z,3.19
2022-11-24T21:59:16.473Z,3.16
2022-11-24T22:04:19.372Z,3.16
2022-11-24T22:09:22.254Z,3.25
2022-11-24T22:14:25.163Z,3.39
2022-11-24T22:19:27.964Z,3.55
2022-11-24T22:24:30.819Z,3.53
2022-11-24T22:29:34.238Z,3.46
2022-11-24T22:34:37.280Z,3.41
2022-11-24T22:39:40.355Z,3.35
2022-11-24T22:44:43.259Z,3.31
2022-11-24T22:49:46.080Z,3.27
2022-11-24T22:54:49.015Z,3.26
2022-11-24T22:59:51.809Z,3.26
2022-11-24T23:04:54.798Z,3.28
2022-11-24T23:09:57.462Z,3.25
2022-11-24T23:15:00.229Z,3.19
2022-11-24T23:20:03.329Z,3.19
2022-11-24T23:25:06.763Z,3.18
2022-11-24T23:30:09.818Z,3.19
2022-11-24T23:35:14.158Z,3.22
2022-11-24T23:40:17.375Z,3.19
2022-11-24T23:45:20.246Z,3.21
2022-11-24T23:50:23.090Z,3.19
2022-11-24T23:55:26.001Z,3.25
